New Preston Marble Dale, Connecticut
Current Conditions -  °F | °C
As of 12:55 PM on Saturday 20 Dec 2014 (Local Time) from KOXC Reporting Station
Overcast Overcast  
Wind Chill: 23°   Ceiling: 2300
Heat Index: 28°   Visibility: 10mi
Dew Point: 16°   Wind: 5mph
Humidity: 59%   Direction: 360°N
Pressure: 30.25"   Gusts: NA
Location:  41.69°N, 73.35°W
Report Text: KOXC 201655Z 36004KT 10SM OVC023 M02/M09 A3025
Loading
Personal Weather Stations






























Interactive Weather Map New forecast layout! Learn more

10-Day Weather Forecast

Advertisements
Track Severe Weather on mobile